createdAt,value
2022-10-11T00:00:56.176Z,10.18
2022-10-11T00:01:56.151Z,10.10
2022-10-11T00:02:56.121Z,10.03
2022-10-11T00:03:56.223Z,9.97
2022-10-11T00:04:56.172Z,9.81
2022-10-11T00:05:56.089Z,9.68
2022-10-11T00:06:56.217Z,9.78
2022-10-11T00:07:56.161Z,9.71
2022-10-11T00:08:56.063Z,9.70
2022-10-11T00:09:56.159Z,9.60
2022-10-11T00:10:56.145Z,9.61
2022-10-11T00:11:56.171Z,9.64
2022-10-11T00:12:56.230Z,9.61
2022-10-11T00:13:56.155Z,9.71
2022-10-11T00:14:56.161Z,9.81
2022-10-11T00:15:56.043Z,9.78
2022-10-11T00:16:56.027Z,9.71
2022-10-11T00:17:56.081Z,9.75
2022-10-11T00:18:56.071Z,9.89
2022-10-11T00:19:56.079Z,9.86
2022-10-11T00:20:56.116Z,9.88
2022-10-11T00:21:55.988Z,9.94
2022-10-11T00:22:56.078Z,9.93
2022-10-11T00:23:56.155Z,9.93
2022-10-11T00:24:55.964Z,10.00
2022-10-11T00:25:56.088Z,10.03
2022-10-11T00:26:56.150Z,10.00
2022-10-11T00:27:55.945Z,9.99
2022-10-11T00:28:56.109Z,9.99
2022-10-11T00:29:56.009Z,9.97
2022-10-11T00:30:55.953Z,9.97
2022-10-11T00:31:56.010Z,9.99
2022-10-11T00:32:56.001Z,9.91
2022-10-11T00:33:55.889Z,9.85
2022-10-11T00:34:56.021Z,9.86
2022-10-11T00:35:55.987Z,9.70
2022-10-11T00:36:55.886Z,9.66
2022-10-11T00:37:55.893Z,9.57
2022-10-11T00:38:55.864Z,9.57
2022-10-11T00:39:55.968Z,9.48
2022-10-11T00:40:55.873Z,9.50
2022-10-11T00:41:56.476Z,9.56
2022-10-11T00:42:55.851Z,9.48
2022-10-11T00:43:55.921Z,9.58
2022-10-11T00:44:56.054Z,9.50
2022-10-11T00:45:55.920Z,9.66
2022-10-11T00:46:56.194Z,9.70
2022-10-11T00:47:56.498Z,9.64
2022-10-11T00:48:55.935Z,9.66
2022-10-11T00:49:55.876Z,9.70
2022-10-11T00:50:56.011Z,9.68
2022-10-11T00:51:55.776Z,9.68
2022-10-11T00:52:55.841Z,9.58
2022-10-11T00:53:55.835Z,9.57
2022-10-11T00:54:55.773Z,9.61
2022-10-11T00:55:55.776Z,9.53
2022-10-11T00:56:55.735Z,9.63
2022-10-11T00:57:55.822Z,9.57
2022-10-11T00:58:55.731Z,9.50
2022-10-11T00:59:55.799Z,9.48
2022-10-11T01:00:55.902Z,9.40
2022-10-11T01:01:55.787Z,9.32
2022-10-11T01:02:55.776Z,9.31
2022-10-11T01:03:55.865Z,9.30
2022-10-11T01:05:17.986Z,9.13
2022-10-11T01:05:57.733Z,9.09
2022-10-11T01:06:55.773Z,9.09
2022-10-11T01:07:55.784Z,8.94
2022-10-11T01:08:55.715Z,8.78
2022-10-11T01:09:56.064Z,8.58
2022-10-11T01:10:55.651Z,8.44
2022-10-11T01:11:55.650Z,8.35
2022-10-11T01:12:55.898Z,8.33
2022-10-11T01:13:55.632Z,8.35
2022-10-11T01:14:55.592Z,8.36
2022-10-11T01:15:55.594Z,8.33
2022-10-11T01:16:55.716Z,8.20
2022-10-11T01:17:55.572Z,8.21
2022-10-11T01:18:55.740Z,8.17
2022-10-11T01:19:56.507Z,8.10
2022-10-11T01:20:55.666Z,7.97
2022-10-11T01:21:55.656Z,7.94
2022-10-11T01:22:55.681Z,7.99
2022-10-11T01:23:55.657Z,7.99
2022-10-11T01:24:55.698Z,7.97
2022-10-11T01:25:55.840Z,8.14
2022-10-11T01:26:55.612Z,8.03
2022-10-11T01:27:55.634Z,8.02
2022-10-11T01:28:55.729Z,8.15
2022-10-11T01:29:55.497Z,8.11
2022-10-11T01:30:55.470Z,8.12
2022-10-11T01:31:55.490Z,8.21
2022-10-11T01:33:00.384Z,8.17
2022-10-11T01:33:55.512Z,8.08
2022-10-11T01:34:55.443Z,8.20
2022-10-11T01:35:55.433Z,8.11
2022-10-11T01:36:55.436Z,8.21
2022-10-11T01:37:55.428Z,8.12
2022-10-11T01:38:55.632Z,8.22
2022-10-11T01:39:55.567Z,8.00
2022-10-11T01:40:55.412Z,7.78
2022-10-11T01:41:55.533Z,7.72
2022-10-11T01:42:55.468Z,7.71
2022-10-11T01:43:55.476Z,7.60
2022-10-11T01:44:55.532Z,7.78
2022-10-11T01:45:55.511Z,7.69
2022-10-11T01:46:55.444Z,7.67
2022-10-11T01:47:55.489Z,7.71
2022-10-11T01:48:55.488Z,7.49
2022-10-11T01:49:55.507Z,7.58
2022-10-11T01:50:55.457Z,7.49
2022-10-11T01:51:55.385Z,7.42
2022-10-11T01:52:55.337Z,7.47
2022-10-11T01:53:55.443Z,7.52
2022-10-11T01:55:09.010Z,7.47
2022-10-11T01:55:57.351Z,7.47
2022-10-11T01:56:55.350Z,7.49
2022-10-11T01:57:55.391Z,7.45
2022-10-11T01:58:55.269Z,7.44
2022-10-11T01:59:55.393Z,7.50
2022-10-11T02:00:55.458Z,7.34
2022-10-11T02:01:55.429Z,7.45
2022-10-11T02:02:55.381Z,7.37
2022-10-11T02:03:55.350Z,7.40
2022-10-11T02:04:55.343Z,7.24
2022-10-11T02:05:55.333Z,7.23
2022-10-11T02:06:55.373Z,7.34
2022-10-11T02:07:55.315Z,7.29
2022-10-11T02:08:55.212Z,7.26
2022-10-11T02:09:55.218Z,7.23
2022-10-11T02:10:55.210Z,7.24
2022-10-11T02:11:55.328Z,7.24
2022-10-11T02:12:55.196Z,7.26
2022-10-11T02:13:55.163Z,7.27
2022-10-11T02:14:56.029Z,7.20
2022-10-11T02:15:55.269Z,7.23
2022-10-11T02:16:55.157Z,7.26
2022-10-11T02:17:55.569Z,7.20
2022-10-11T02:18:55.298Z,7.19
2022-10-11T02:19:55.216Z,7.20
2022-10-11T02:20:55.235Z,7.20
2022-10-11T02:21:55.205Z,7.29
2022-10-11T02:22:56.051Z,7.26
2022-10-11T02:23:55.191Z,7.38
2022-10-11T02:24:55.209Z,7.34
2022-10-11T02:25:55.091Z,7.34
2022-10-11T02:26:55.097Z,7.24
2022-10-11T02:27:55.160Z,7.24
2022-10-11T02:28:55.212Z,7.38
2022-10-11T02:29:55.080Z,7.42
2022-10-11T02:30:55.129Z,7.32
2022-10-11T02:31:55.058Z,7.41
2022-10-11T02:32:55.057Z,7.34
2022-10-11T02:33:55.096Z,7.24
2022-10-11T02:34:55.031Z,7.01
2022-10-11T02:35:55.161Z,6.72
2022-10-11T02:36:55.112Z,6.61
2022-10-11T02:37:55.002Z,6.53
2022-10-11T02:38:55.137Z,6.53
2022-10-11T02:39:55.157Z,6.63
2022-10-11T02:40:55.074Z,6.66
2022-10-11T02:41:55.054Z,6.81
2022-10-11T02:42:55.046Z,6.69
2022-10-11T02:43:55.055Z,6.81
2022-10-11T02:44:55.090Z,6.83
2022-10-11T02:45:54.952Z,6.77
2022-10-11T02:46:54.942Z,6.58
2022-10-11T02:47:54.914Z,6.73
2022-10-11T02:48:54.921Z,6.63
2022-10-11T02:49:54.961Z,6.68
2022-10-11T02:50:54.900Z,6.59
2022-10-11T02:51:54.927Z,6.58
2022-10-11T02:52:54.907Z,6.44
2022-10-11T02:53:54.875Z,6.47
2022-10-11T02:54:54.887Z,6.56
2022-10-11T02:55:54.940Z,6.48
2022-10-11T02:56:54.881Z,6.54
2022-10-11T02:57:54.955Z,6.56
2022-10-11T02:58:54.894Z,6.58
2022-10-11T02:59:54.940Z,6.63
2022-10-11T03:00:55.004Z,6.61
2022-10-11T03:01:54.929Z,6.56
2022-10-11T03:02:54.988Z,6.50
2022-10-11T03:03:54.906Z,6.48
2022-10-11T03:04:54.817Z,6.53
2022-10-11T03:05:54.899Z,6.51
2022-10-11T03:06:54.992Z,6.46
2022-10-11T03:07:54.812Z,6.65
2022-10-11T03:08:54.880Z,6.47
2022-10-11T03:09:54.875Z,6.47
2022-10-11T03:10:54.804Z,6.54
2022-10-11T03:11:54.820Z,6.40
2022-10-11T03:12:54.751Z,6.47
2022-10-11T03:13:54.768Z,6.51
2022-10-11T03:14:54.839Z,6.40
2022-10-11T03:16:02.703Z,6.40
2022-10-11T03:17:12.125Z,6.32
2022-10-11T03:17:55.730Z,6.36
2022-10-11T03:18:54.739Z,6.38
2022-10-11T03:19:54.706Z,6.30
2022-10-11T03:20:54.878Z,6.26
2022-10-11T03:21:54.824Z,6.26
2022-10-11T03:22:54.936Z,6.22
2022-10-11T03:23:54.843Z,6.14
2022-10-11T03:24:57.455Z,6.21
2022-10-11T03:25:54.679Z,6.28
2022-10-11T03:26:54.758Z,6.30
2022-10-11T03:27:54.790Z,6.33
2022-10-11T03:28:54.707Z,6.29
2022-10-11T03:29:54.780Z,6.28
2022-10-11T03:30:54.732Z,6.32
2022-10-11T03:31:54.628Z,6.29
2022-10-11T03:32:55.828Z,6.30
2022-10-11T03:33:54.783Z,6.41
2022-10-11T03:34:54.611Z,6.38
2022-10-11T03:35:54.595Z,6.43
2022-10-11T03:36:54.599Z,6.46
2022-10-11T03:37:54.585Z,6.46
2022-10-11T03:38:54.713Z,6.44
2022-10-11T03:39:54.658Z,6.50
2022-10-11T03:40:54.606Z,6.43
2022-10-11T03:41:54.658Z,6.53
2022-10-11T03:42:54.652Z,6.48
2022-10-11T03:43:54.651Z,6.54
2022-10-11T03:44:54.645Z,6.47
2022-10-11T03:45:54.663Z,6.59
2022-10-11T03:46:54.534Z,6.61
2022-10-11T03:47:54.616Z,6.62
2022-10-11T03:48:54.687Z,6.44
2022-10-11T03:49:54.497Z,6.50
2022-10-11T03:50:54.664Z,6.40
2022-10-11T03:51:54.583Z,6.33
2022-10-11T03:52:54.514Z,6.36
2022-10-11T03:53:54.571Z,6.36
2022-10-11T03:54:54.501Z,6.36
2022-10-11T03:55:54.484Z,6.33
2022-10-11T03:56:54.452Z,6.38
2022-10-11T03:57:54.556Z,6.35
2022-10-11T03:58:54.472Z,6.38
2022-10-11T04:00:10.087Z,6.19
2022-10-11T04:00:54.430Z,6.18
2022-10-11T04:01:54.589Z,6.10
2022-10-11T04:02:54.513Z,6.09
2022-10-11T04:03:54.547Z,5.92
2022-10-11T04:04:54.426Z,5.89
2022-10-11T04:05:54.554Z,5.88
2022-10-11T04:06:54.477Z,5.85
2022-10-11T04:07:54.501Z,5.88
2022-10-11T04:08:54.545Z,5.91
2022-10-11T04:09:54.510Z,5.86
2022-10-11T04:10:54.387Z,5.89
2022-10-11T04:11:54.498Z,5.81
2022-10-11T04:12:54.441Z,5.78
2022-10-11T04:13:54.357Z,5.73
2022-10-11T04:14:54.364Z,5.77
2022-10-11T04:15:54.329Z,5.74
2022-10-11T04:16:56.405Z,5.85
2022-10-11T04:17:55.437Z,5.75
2022-10-11T04:18:54.303Z,5.85
2022-10-11T04:19:54.311Z,5.77
2022-10-11T04:20:54.284Z,5.70
2022-10-11T04:21:54.424Z,5.68
2022-10-11T04:22:54.290Z,5.73
2022-10-11T04:23:54.350Z,5.71
2022-10-11T04:24:54.364Z,5.75
2022-10-11T04:25:54.280Z,5.64
2022-10-11T04:26:54.358Z,5.66
2022-10-11T04:27:54.705Z,5.66
2022-10-11T04:28:54.420Z,5.50
2022-10-11T04:29:54.317Z,5.66
2022-10-11T04:30:54.367Z,5.63
2022-10-11T04:31:54.231Z,5.50
2022-10-11T04:32:54.238Z,5.50
2022-10-11T04:33:54.293Z,5.55
2022-10-11T04:34:54.333Z,5.49
2022-10-11T04:35:54.169Z,5.48
2022-10-11T04:36:54.287Z,5.25
2022-10-11T04:37:54.587Z,5.27
2022-10-11T04:38:54.191Z,5.31
2022-10-11T04:39:54.236Z,5.30
2022-10-11T04:40:54.248Z,5.20
2022-10-11T04:41:54.201Z,5.25
2022-10-11T04:42:54.242Z,5.12
2022-10-11T04:43:54.257Z,5.17
2022-10-11T04:44:54.235Z,5.13
2022-10-11T04:45:55.588Z,5.17
2022-10-11T04:46:55.272Z,5.28
2022-10-11T04:47:54.099Z,5.17
2022-10-11T04:48:54.169Z,5.23
2022-10-11T04:49:54.136Z,5.25
2022-10-11T04:50:54.120Z,5.28
2022-10-11T04:51:54.081Z,5.35
2022-10-11T04:52:54.101Z,5.40
2022-10-11T04:53:54.083Z,5.45
2022-10-11T04:54:54.139Z,5.57
2022-10-11T04:55:54.666Z,5.60
2022-10-11T04:56:54.080Z,5.56
2022-10-11T04:57:54.059Z,5.56
2022-10-11T04:58:54.219Z,5.43
2022-10-11T04:59:54.054Z,5.35
2022-10-11T05:00:54.097Z,5.34
2022-10-11T05:01:54.154Z,5.45
2022-10-11T05:02:54.071Z,5.40
2022-10-11T05:03:54.061Z,5.31
2022-10-11T05:04:54.177Z,5.37
2022-10-11T05:05:54.049Z,5.34
2022-10-11T05:06:54.058Z,5.28
2022-10-11T05:07:54.064Z,5.28
2022-10-11T05:08:54.015Z,5.20
2022-10-11T05:09:54.029Z,5.35
2022-10-11T05:10:54.052Z,5.31
2022-10-11T05:11:53.949Z,5.19
2022-10-11T05:12:53.987Z,5.34
2022-10-11T05:13:54.055Z,5.31
2022-10-11T05:15:01.903Z,5.34
2022-10-11T05:15:53.988Z,5.32
2022-10-11T05:16:54.050Z,5.34
2022-10-11T05:17:53.894Z,5.50
2022-10-11T05:18:57.379Z,5.49
2022-10-11T05:19:53.856Z,5.46
2022-10-11T05:20:53.865Z,5.53
2022-10-11T05:21:54.075Z,5.67
2022-10-11T05:22:53.921Z,5.66
2022-10-11T05:23:53.853Z,5.64
2022-10-11T05:24:53.922Z,5.48
2022-10-11T05:25:53.925Z,5.49
2022-10-11T05:26:53.940Z,5.56
2022-10-11T05:27:54.559Z,5.50
2022-10-11T05:28:53.949Z,5.37
2022-10-11T05:29:53.886Z,5.52
2022-10-11T05:30:53.794Z,5.56
2022-10-11T05:31:53.766Z,5.60
2022-10-11T05:32:54.085Z,5.75
2022-10-11T05:33:53.855Z,5.81
2022-10-11T05:34:53.782Z,5.86
2022-10-11T05:35:53.792Z,5.98
2022-10-11T05:36:53.787Z,5.96
2022-10-11T05:37:53.812Z,6.14
2022-10-11T05:38:53.774Z,6.22
2022-10-11T05:39:53.765Z,6.28
2022-10-11T05:40:53.833Z,6.29
2022-10-11T05:41:53.722Z,6.26
2022-10-11T05:42:53.840Z,6.19
2022-10-11T05:43:53.783Z,6.13
2022-10-11T05:44:53.712Z,6.13
2022-10-11T05:45:54.047Z,6.13
2022-10-11T05:46:53.759Z,6.07
2022-10-11T05:47:53.658Z,5.86
2022-10-11T05:48:53.827Z,6.01
2022-10-11T05:49:53.743Z,5.95
2022-10-11T05:50:53.712Z,5.95
2022-10-11T05:51:53.727Z,5.92
2022-10-11T05:52:53.734Z,5.86
2022-10-11T05:53:53.673Z,5.91
2022-10-11T05:54:53.637Z,5.95
2022-10-11T05:55:53.615Z,5.91
2022-10-11T05:56:53.716Z,5.88
2022-10-11T05:57:53.629Z,6.03
2022-10-11T05:58:54.964Z,6.10
2022-10-11T05:59:53.606Z,6.04
2022-10-11T06:00:53.912Z,6.04
2022-10-11T06:01:53.675Z,6.19
2022-10-11T06:02:53.565Z,6.06
2022-10-11T06:03:53.639Z,6.06
2022-10-11T06:04:53.663Z,6.07
2022-10-11T06:05:56.997Z,6.07
2022-10-11T06:06:54.699Z,5.86
2022-10-11T06:07:53.607Z,5.83
2022-10-11T06:08:53.512Z,5.83
2022-10-11T06:09:53.649Z,5.91
2022-10-11T06:10:53.630Z,5.82
2022-10-11T06:11:53.488Z,5.86
2022-10-11T06:12:53.556Z,5.75
2022-10-11T06:13:53.469Z,5.82
2022-10-11T06:14:53.467Z,5.77
2022-10-11T06:15:53.532Z,5.88
2022-10-11T06:16:53.538Z,5.83
2022-10-11T06:17:53.543Z,5.83
2022-10-11T06:18:53.465Z,5.92
2022-10-11T06:19:54.049Z,6.00
2022-10-11T06:20:53.469Z,5.95
2022-10-11T06:21:53.658Z,5.91
2022-10-11T06:22:53.516Z,6.03
2022-10-11T06:23:58.372Z,6.07
2022-10-11T06:24:55.518Z,6.19
2022-10-11T06:25:53.643Z,6.19
2022-10-11T06:26:53.411Z,6.10
2022-10-11T06:27:53.451Z,6.10
2022-10-11T06:28:53.502Z,6.10
2022-10-11T06:29:53.399Z,6.03
2022-10-11T06:30:54.495Z,6.06
2022-10-11T06:31:53.453Z,6.07
2022-10-11T06:32:53.337Z,6.13
2022-10-11T06:33:53.439Z,6.25
2022-10-11T06:34:53.328Z,6.26
2022-10-11T06:35:53.318Z,6.26
2022-10-11T06:36:53.807Z,6.38
2022-10-11T06:37:53.395Z,6.35
2022-10-11T06:38:53.300Z,6.16
2022-10-11T06:39:53.376Z,6.26
2022-10-11T06:40:53.392Z,6.25
2022-10-11T06:41:53.329Z,6.32
2022-10-11T06:42:53.386Z,6.21
2022-10-11T06:43:53.354Z,6.21
2022-10-11T06:44:53.278Z,6.19
2022-10-11T06:45:53.346Z,6.21
2022-10-11T06:46:53.432Z,6.22
2022-10-11T06:47:53.253Z,6.25
2022-10-11T06:48:53.400Z,6.26
2022-10-11T06:49:53.292Z,6.28
2022-10-11T06:51:00.067Z,6.25
2022-10-11T06:51:55.379Z,6.36
2022-10-11T06:52:53.287Z,6.51
2022-10-11T06:53:53.213Z,6.53
2022-10-11T06:54:53.176Z,6.50
2022-10-11T06:55:53.182Z,6.59
2022-10-11T06:56:53.175Z,6.68
2022-10-11T06:57:53.205Z,6.72
2022-10-11T06:58:53.246Z,6.80
2022-10-11T06:59:53.251Z,6.91
2022-10-11T07:00:53.300Z,6.95
2022-10-11T07:01:53.226Z,6.87
2022-10-11T07:02:53.250Z,6.98
2022-10-11T07:03:53.196Z,7.01
2022-10-11T07:04:53.211Z,7.09
2022-10-11T07:05:53.131Z,7.22
2022-10-11T07:06:53.203Z,7.20
2022-10-11T07:07:53.212Z,7.22
2022-10-11T07:08:53.120Z,7.31
2022-10-11T07:09:53.236Z,7.27
2022-10-11T07:10:53.161Z,7.45
2022-10-11T07:11:53.068Z,7.56
2022-10-11T07:12:53.149Z,7.52
2022-10-11T07:13:53.099Z,7.44
2022-10-11T07:14:53.099Z,7.45
2022-10-11T07:15:53.067Z,7.55
2022-10-11T07:16:53.131Z,7.44
2022-10-11T07:17:53.042Z,7.45
2022-10-11T07:18:58.786Z,7.52
2022-10-11T07:19:55.064Z,7.59
2022-10-11T07:20:53.189Z,7.78
2022-10-11T07:21:53.115Z,7.72
2022-10-11T07:22:53.095Z,7.79
2022-10-11T07:23:52.972Z,7.84
2022-10-11T07:24:53.114Z,7.82
2022-10-11T07:25:53.068Z,7.87
2022-10-11T07:26:53.010Z,7.89
2022-10-11T07:27:53.057Z,7.99
2022-10-11T07:28:53.174Z,7.97
2022-10-11T07:29:52.958Z,7.93
2022-10-11T07:30:53.059Z,8.04
2022-10-11T07:31:52.955Z,8.14
2022-10-11T07:32:52.967Z,8.08
2022-10-11T07:33:52.911Z,8.12
2022-10-11T07:34:53.126Z,8.18
2022-10-11T07:35:52.940Z,8.22
2022-10-11T07:36:52.962Z,8.32
2022-10-11T07:37:52.996Z,8.29
2022-10-11T07:38:52.880Z,8.39
2022-10-11T07:39:52.931Z,8.48
2022-10-11T07:40:52.937Z,8.65
2022-10-11T07:41:53.314Z,8.68
2022-10-11T07:42:52.938Z,8.71
2022-10-11T07:43:52.965Z,8.87
2022-10-11T07:44:52.939Z,8.90
2022-10-11T07:45:52.897Z,8.99
2022-10-11T07:46:52.943Z,9.06
2022-10-11T07:47:52.807Z,9.06
2022-10-11T07:48:52.806Z,8.99
2022-10-11T07:49:52.928Z,9.10
2022-10-11T07:50:52.781Z,9.05
2022-10-11T07:51:52.760Z,9.13
2022-10-11T07:52:52.835Z,9.06
2022-10-11T07:53:52.737Z,9.09
2022-10-11T07:54:52.785Z,9.10
2022-10-11T07:55:52.903Z,9.13
2022-10-11T07:56:52.832Z,9.13
2022-10-11T07:57:52.779Z,9.15
2022-10-11T07:58:52.844Z,9.06
2022-10-11T07:59:52.803Z,9.18
2022-10-11T08:00:52.794Z,9.23
2022-10-11T08:01:52.879Z,9.12
2022-10-11T08:02:52.835Z,9.25
2022-10-11T08:03:52.803Z,9.23
2022-10-11T08:04:52.864Z,9.12
2022-10-11T08:05:52.767Z,9.23
2022-10-11T08:06:53.605Z,9.16
2022-10-11T08:07:53.782Z,9.09
2022-10-11T08:08:52.735Z,9.09
2022-10-11T08:09:52.673Z,9.27
2022-10-11T08:10:52.650Z,9.28
2022-10-11T08:11:52.608Z,9.28
2022-10-11T08:12:52.619Z,9.35
2022-10-11T08:13:52.673Z,9.48
2022-10-11T08:14:52.617Z,9.50
2022-10-11T08:15:52.620Z,9.71
2022-10-11T08:16:52.622Z,9.66
2022-10-11T08:17:52.628Z,9.71
2022-10-11T08:18:52.648Z,9.81
2022-10-11T08:19:52.658Z,9.89
2022-10-11T08:20:52.663Z,9.96
2022-10-11T08:21:52.644Z,9.94
2022-10-11T08:22:52.634Z,10.04
2022-10-11T08:23:52.665Z,10.12
2022-10-11T08:24:52.627Z,10.09
2022-10-11T08:25:52.645Z,10.24
2022-10-11T08:26:52.682Z,10.21
2022-10-11T08:27:52.518Z,10.28
2022-10-11T08:28:52.663Z,10.33
2022-10-11T08:29:52.634Z,10.37
2022-10-11T08:30:52.626Z,10.28
2022-10-11T08:31:52.721Z,10.21
2022-10-11T08:32:52.634Z,10.32
2022-10-11T08:33:52.585Z,10.32
2022-10-11T08:34:52.660Z,10.39
2022-10-11T08:35:52.597Z,10.53
2022-10-11T08:36:52.567Z,10.59
2022-10-11T08:37:52.498Z,10.62
2022-10-11T08:38:52.458Z,10.83
2022-10-11T08:39:52.440Z,10.99
2022-10-11T08:40:52.470Z,11.03
2022-10-11T08:41:52.429Z,11.11
2022-10-11T08:42:52.463Z,11.17
2022-10-11T08:43:52.464Z,11.16
2022-10-11T08:45:09.915Z,11.19
2022-10-11T08:45:54.504Z,11.10
2022-10-11T08:46:58.191Z,11.17
2022-10-11T08:47:53.368Z,11.06
2022-10-11T08:48:52.425Z,10.94
2022-10-11T08:49:52.415Z,10.80
2022-10-11T08:50:52.519Z,10.84
2022-10-11T08:51:52.457Z,10.88
2022-10-11T08:52:52.450Z,10.91
2022-10-11T08:53:52.484Z,10.92
2022-10-11T08:54:52.422Z,10.89
2022-10-11T08:55:52.424Z,10.99
2022-10-11T08:56:52.452Z,10.96
2022-10-11T08:57:52.495Z,10.94
2022-10-11T08:58:52.442Z,10.94
2022-10-11T08:59:52.419Z,11.10
2022-10-11T09:00:52.447Z,10.96
2022-10-11T09:01:52.423Z,11.03
2022-10-11T09:03:07.963Z,11.11
2022-10-11T09:03:54.301Z,11.16
2022-10-11T09:04:52.256Z,11.16
2022-10-11T09:05:52.566Z,11.20
2022-10-11T09:06:52.330Z,11.32
2022-10-11T09:07:52.402Z,11.29
2022-10-11T09:08:52.347Z,11.29
2022-10-11T09:09:52.310Z,11.36
2022-10-11T09:10:52.397Z,11.39
2022-10-11T09:11:52.297Z,11.29
2022-10-11T09:12:52.347Z,11.44
2022-10-11T09:13:52.412Z,11.27
2022-10-11T09:14:52.349Z,11.16
2022-10-11T09:15:52.339Z,11.17
2022-10-11T09:16:52.255Z,11.20
2022-10-11T09:17:52.253Z,11.31
2022-10-11T09:18:52.305Z,11.36
2022-10-11T09:19:53.151Z,11.52
2022-10-11T09:20:52.179Z,11.53
2022-10-11T09:21:52.227Z,11.50
2022-10-11T09:22:52.226Z,11.46
2022-10-11T09:23:52.325Z,11.49
2022-10-11T09:24:52.234Z,11.50
2022-10-11T09:25:52.266Z,11.43
2022-10-11T09:26:52.205Z,11.52
2022-10-11T09:28:02.289Z,11.62
2022-10-11T09:28:58.625Z,11.70
2022-10-11T09:29:53.270Z,11.74
2022-10-11T09:30:52.241Z,11.80
2022-10-11T09:31:52.176Z,11.96
2022-10-11T09:32:52.180Z,11.96
2022-10-11T09:33:52.158Z,12.08
2022-10-11T09:34:52.181Z,12.15
2022-10-11T09:35:52.127Z,12.21
2022-10-11T09:36:52.060Z,12.41
2022-10-11T09:37:52.033Z,12.31
2022-10-11T09:38:52.142Z,12.08
2022-10-11T09:39:52.150Z,12.11
2022-10-11T09:40:52.090Z,11.99
2022-10-11T09:41:52.108Z,11.86
2022-10-11T09:42:52.098Z,11.85
2022-10-11T09:43:52.081Z,11.80
2022-10-11T09:44:52.116Z,11.78
2022-10-11T09:45:52.005Z,11.96
2022-10-11T09:46:52.129Z,11.87
2022-10-11T09:47:52.051Z,11.86
2022-10-11T09:48:52.094Z,12.08
2022-10-11T09:49:52.052Z,12.21
2022-10-11T09:50:52.078Z,12.29
2022-10-11T09:51:52.032Z,12.38
2022-10-11T09:52:51.998Z,12.34
2022-10-11T09:53:51.919Z,12.42
2022-10-11T09:54:51.899Z,12.33
2022-10-11T09:55:51.981Z,12.37
2022-10-11T09:56:52.014Z,12.46
2022-10-11T09:57:51.872Z,12.42
2022-10-11T09:58:51.941Z,12.60
2022-10-11T09:59:51.974Z,12.45
2022-10-11T10:00:51.953Z,12.60
2022-10-11T10:01:52.013Z,12.71
2022-10-11T10:02:51.933Z,12.89
2022-10-11T10:03:51.985Z,12.81
2022-10-11T10:04:51.921Z,12.88
2022-10-11T10:05:52.004Z,13.11
2022-10-11T10:06:51.907Z,12.88
2022-10-11T10:07:52.001Z,12.89
2022-10-11T10:08:51.996Z,12.69
2022-10-11T10:09:51.987Z,12.70
2022-10-11T10:10:55.802Z,12.85
2022-10-11T10:11:52.832Z,12.84
2022-10-11T10:12:51.970Z,12.82
2022-10-11T10:13:51.865Z,12.96
2022-10-11T10:14:51.912Z,13.04
2022-10-11T10:15:51.835Z,13.32
2022-10-11T10:16:51.867Z,13.40
2022-10-11T10:17:51.885Z,13.38
2022-10-11T10:18:51.850Z,13.49
2022-10-11T10:19:51.813Z,13.41
2022-10-11T10:20:51.889Z,13.38
2022-10-11T10:21:51.780Z,13.41
2022-10-11T10:22:51.779Z,13.58
2022-10-11T10:23:51.853Z,13.70
2022-10-11T10:24:51.835Z,13.62
2022-10-11T10:25:51.748Z,13.59
2022-10-11T10:26:51.700Z,13.67
2022-10-11T10:27:51.673Z,13.91
2022-10-11T10:28:51.829Z,14.04
2022-10-11T10:29:51.684Z,14.06
2022-10-11T10:30:51.780Z,14.02
2022-10-11T10:32:15.673Z,14.02
2022-10-11T10:32:53.651Z,14.13
2022-10-11T10:33:51.703Z,14.14
2022-10-11T10:34:51.795Z,14.29
2022-10-11T10:35:51.757Z,14.44
2022-10-11T10:36:51.716Z,14.54
2022-10-11T10:37:51.696Z,14.64
2022-10-11T10:38:52.417Z,14.37
2022-10-11T10:39:52.689Z,14.17
2022-10-11T10:40:51.652Z,14.27
2022-10-11T10:41:51.678Z,13.96
2022-10-11T10:42:51.549Z,13.79
2022-10-11T10:43:51.558Z,14.06
2022-10-11T10:44:51.641Z,14.06
2022-10-11T10:45:51.596Z,14.04
2022-10-11T10:46:51.539Z,14.13
2022-10-11T10:47:51.621Z,14.31
2022-10-11T10:49:54.660Z,14.34
2022-10-11T10:50:52.953Z,14.34
2022-10-11T10:51:51.522Z,14.10
2022-10-11T10:52:51.603Z,13.96
2022-10-11T10:53:51.681Z,13.94
2022-10-11T10:54:51.629Z,13.83
2022-10-11T10:55:51.562Z,13.87
2022-10-11T10:56:51.618Z,13.88
2022-10-11T10:57:51.544Z,13.73
2022-10-11T10:58:51.536Z,13.43
2022-10-11T10:59:51.525Z,13.58
2022-10-11T11:00:51.546Z,13.56
2022-10-11T11:01:51.591Z,13.61
2022-10-11T11:02:51.573Z,13.59
2022-10-11T11:03:51.458Z,13.77
2022-10-11T11:04:51.449Z,13.77
2022-10-11T11:05:51.530Z,13.80
2022-10-11T11:06:51.379Z,13.83
2022-10-11T11:07:51.507Z,13.89
2022-10-11T11:08:51.472Z,14.06
2022-10-11T11:09:51.436Z,14.13
2022-10-11T11:10:51.462Z,14.17
2022-10-11T11:11:51.524Z,14.16
2022-10-11T11:12:51.519Z,14.34
2022-10-11T11:13:51.493Z,14.10
2022-10-11T11:14:51.590Z,13.67
2022-10-11T11:15:51.576Z,13.74
2022-10-11T11:16:51.625Z,13.83
2022-10-11T11:17:51.730Z,13.89
2022-10-11T11:18:51.617Z,13.99
2022-10-11T11:19:51.553Z,14.14
2022-10-11T11:20:51.503Z,13.98
2022-10-11T11:21:51.503Z,13.71
2022-10-11T11:22:51.514Z,13.67
2022-10-11T11:23:51.495Z,13.63
2022-10-11T11:24:51.378Z,13.62
2022-10-11T11:25:51.383Z,13.74
2022-10-11T11:26:51.392Z,13.87
2022-10-11T11:27:51.366Z,14.09
2022-10-11T11:28:51.585Z,14.10
2022-10-11T11:29:55.371Z,14.29
2022-10-11T11:30:52.426Z,14.47
2022-10-11T11:31:51.465Z,14.43
2022-10-11T11:32:51.393Z,14.52
2022-10-11T11:33:51.604Z,14.39
2022-10-11T11:34:51.481Z,14.27
2022-10-11T11:35:51.516Z,14.12
2022-10-11T11:36:51.398Z,13.84
2022-10-11T11:37:57.938Z,13.76
2022-10-11T11:38:53.548Z,13.80
2022-10-11T11:39:51.487Z,13.94
2022-10-11T11:40:51.438Z,14.17
2022-10-11T11:41:51.279Z,14.06
2022-10-11T11:42:51.353Z,14.06
2022-10-11T11:43:51.317Z,13.99
2022-10-11T11:44:52.439Z,13.88
2022-10-11T11:45:52.448Z,13.80
2022-10-11T11:46:51.262Z,13.74
2022-10-11T11:47:51.278Z,13.92
2022-10-11T11:48:51.325Z,14.06
2022-10-11T11:49:51.392Z,14.21
2022-10-11T11:50:51.357Z,14.43
2022-10-11T11:51:51.357Z,14.47
2022-10-11T11:52:51.184Z,14.43
2022-10-11T11:53:51.187Z,14.46
2022-10-11T11:54:51.165Z,14.56
2022-10-11T11:55:51.247Z,14.71
2022-10-11T11:56:51.175Z,14.71
2022-10-11T11:57:51.137Z,14.61
2022-10-11T11:58:51.315Z,14.78
2022-10-11T11:59:51.155Z,14.88
2022-10-11T12:00:51.155Z,14.94
2022-10-11T12:01:51.158Z,14.87
2022-10-11T12:02:51.309Z,14.99
2022-10-11T12:03:51.221Z,15.06
2022-10-11T12:04:51.197Z,15.08
2022-10-11T12:05:51.104Z,15.03
2022-10-11T12:07:14.638Z,15.20
2022-10-11T12:07:53.110Z,15.20
2022-10-11T12:08:51.229Z,15.17
2022-10-11T12:09:51.132Z,15.08
2022-10-11T12:10:51.276Z,15.12
2022-10-11T12:11:51.134Z,15.17
2022-10-11T12:12:51.166Z,15.23
2022-10-11T12:13:51.190Z,15.31
2022-10-11T12:14:51.103Z,15.27
2022-10-11T12:15:51.158Z,15.31
2022-10-11T12:16:51.086Z,15.36
2022-10-11T12:17:51.118Z,15.24
2022-10-11T12:18:50.983Z,15.12
2022-10-11T12:19:51.937Z,15.05
2022-10-11T12:20:50.963Z,14.99
2022-10-11T12:21:53.276Z,15.06
2022-10-11T12:22:51.017Z,15.02
2022-10-11T12:23:51.062Z,15.11
2022-10-11T12:24:50.957Z,15.05
2022-10-11T12:25:50.920Z,14.87
2022-10-11T12:26:50.948Z,14.99
2022-10-11T12:27:51.914Z,14.86
2022-10-11T12:28:50.876Z,14.98
2022-10-11T12:29:50.823Z,15.06
2022-10-11T12:30:50.916Z,14.98
2022-10-11T12:31:51.761Z,14.94
2022-10-11T12:32:50.834Z,14.98
2022-10-11T12:33:50.881Z,15.08
2022-10-11T12:34:50.821Z,15.28
2022-10-11T12:35:50.789Z,15.36
2022-10-11T12:36:50.912Z,15.30
2022-10-11T12:37:50.844Z,15.48
2022-10-11T12:38:50.939Z,15.59
2022-10-11T12:39:50.857Z,16.33
2022-10-11T12:40:50.858Z,16.86
2022-10-11T12:41:50.841Z,17.35
2022-10-11T12:42:50.895Z,17.87
2022-10-11T12:43:50.833Z,18.58
2022-10-11T12:44:51.069Z,19.28
2022-10-11T12:45:50.810Z,19.93
2022-10-11T12:46:50.755Z,20.69
2022-10-11T12:47:50.842Z,21.09
2022-10-11T12:48:50.819Z,21.67
2022-10-11T12:49:50.833Z,21.74
2022-10-11T12:50:50.782Z,20.99
2022-10-11T12:51:50.788Z,20.25
2022-10-11T12:52:50.805Z,20.28
2022-10-11T12:54:14.391Z,20.31
2022-10-11T12:54:52.749Z,20.65
2022-10-11T12:55:50.661Z,21.21
2022-10-11T12:56:50.672Z,21.59
2022-10-11T12:57:50.603Z,22.07
2022-10-11T12:58:50.624Z,21.57
2022-10-11T12:59:50.623Z,20.90
2022-10-11T13:00:50.878Z,21.17
2022-10-11T13:01:50.783Z,21.20
2022-10-11T13:02:50.578Z,21.14
2022-10-11T13:03:50.570Z,21.92
2022-10-11T13:04:50.611Z,22.37
2022-10-11T13:05:53.722Z,22.90
2022-10-11T13:06:51.573Z,23.39
2022-10-11T13:07:50.744Z,23.57
2022-10-11T13:08:50.599Z,22.44
2022-10-11T13:09:50.697Z,22.38